Terminal Aerodrome Forecast
Issued by NWS

Current Version | Previous Version | Graphics & Text | Print | Product List | Glossary Off
Versions: 1 2 3 4 5 6 7 8 9 10 11 12 13 14 15 16 17

000
FTUS41 KILN 021733
TAFLCK
TAF
KLCK 021733Z 0218/0318 24010KT P6SM SCT050
     FM030000 20006KT P6SM SCT200
     FM031100 20009KT P6SM VCTS BKN040CB
     FM031400 24011KT P6SM VCTS BKN040CB=

USA.gov is the U.S. government's official web portal to all federal, state and local government web resources and services.